sensor_id;sensor_type;location;lat;lon;timestamp;P1;durP1;ratioP1;P2;durP2;ratioP2
11471;SDS011;47430;50.808;4.388;2022-11-20T00:01:33;37.93;;;19.67;;
11471;SDS011;47430;50.808;4.388;2022-11-20T00:03:59;45.83;;;21.20;;
11471;SDS011;47430;50.808;4.388;2022-11-20T00:06:26;48.63;;;21.20;;
11471;SDS011;47430;50.808;4.388;2022-11-20T00:08:56;48.67;;;21.17;;
11471;SDS011;47430;50.808;4.388;2022-11-20T00:11:24;39.67;;;19.60;;
11471;SDS011;47430;50.808;4.388;2022-11-20T00:13:51;46.47;;;22.00;;
11471;SDS011;47430;50.808;4.388;2022-11-20T00:16:19;46.73;;;21.50;;
11471;SDS011;47430;50.808;4.388;2022-11-20T00:18:45;43.67;;;20.50;;
11471;SDS011;47430;50.808;4.388;2022-11-20T00:21:21;41.40;;;20.63;;
11471;SDS011;47430;50.808;4.388;2022-11-20T00:23:48;45.90;;;21.60;;
11471;SDS011;47430;50.808;4.388;2022-11-20T00:26:16;45.00;;;21.10;;
11471;SDS011;47430;50.808;4.388;2022-11-20T00:28:43;44.90;;;21.13;;
11471;SDS011;47430;50.808;4.388;2022-11-20T00:31:13;44.57;;;20.03;;
11471;SDS011;47430;50.808;4.388;2022-11-20T00:33:40;52.80;;;21.43;;
11471;SDS011;47430;50.808;4.388;2022-11-20T00:36:07;51.90;;;20.53;;
11471;SDS011;47430;50.808;4.388;2022-11-20T00:38:34;43.27;;;20.73;;
11471;SDS011;47430;50.808;4.388;2022-11-20T00:41:02;42.97;;;20.63;;
11471;SDS011;47430;50.808;4.388;2022-11-20T00:43:28;44.27;;;20.83;;
11471;SDS011;47430;50.808;4.388;2022-11-20T00:45:57;45.70;;;20.67;;
11471;SDS011;47430;50.808;4.388;2022-11-20T00:48:23;41.47;;;20.43;;
11471;SDS011;47430;50.808;4.388;2022-11-20T00:50:50;43.67;;;21.07;;
11471;SDS011;47430;50.808;4.388;2022-11-20T00:53:16;44.23;;;21.00;;
11471;SDS011;47430;50.808;4.388;2022-11-20T00:55:42;40.90;;;20.63;;
11471;SDS011;47430;50.808;4.388;2022-11-20T00:58:08;44.20;;;22.27;;
11471;SDS011;47430;50.808;4.388;2022-11-20T01:00:34;43.70;;;21.10;;
11471;SDS011;47430;50.808;4.388;2022-11-20T01:03:00;45.63;;;21.07;;
11471;SDS011;47430;50.808;4.388;2022-11-20T01:05:26;45.70;;;20.60;;
11471;SDS011;47430;50.808;4.388;2022-11-20T01:07:52;42.33;;;20.43;;
11471;SDS011;47430;50.808;4.388;2022-11-20T01:10:18;42.43;;;21.13;;
11471;SDS011;47430;50.808;4.388;2022-11-20T01:12:44;46.77;;;21.37;;
11471;SDS011;47430;50.808;4.388;2022-11-20T01:15:30;38.27;;;19.17;;
11471;SDS011;47430;50.808;4.388;2022-11-20T01:17:56;43.40;;;20.33;;
11471;SDS011;47430;50.808;4.388;2022-11-20T01:20:22;40.70;;;19.27;;
11471;SDS011;47430;50.808;4.388;2022-11-20T01:22:48;38.47;;;20.63;;
11471;SDS011;47430;50.808;4.388;2022-11-20T01:25:14;38.90;;;19.87;;
11471;SDS011;47430;50.808;4.388;2022-11-20T01:27:40;46.60;;;19.57;;
11471;SDS011;47430;50.808;4.388;2022-11-20T01:30:06;40.07;;;19.43;;
11471;SDS011;47430;50.808;4.388;2022-11-20T01:32:32;37.87;;;19.10;;
11471;SDS011;47430;50.808;4.388;2022-11-20T01:34:58;36.13;;;18.13;;
11471;SDS011;47430;50.808;4.388;2022-11-20T01:37:24;40.50;;;19.13;;
11471;SDS011;47430;50.808;4.388;2022-11-20T01:39:50;38.30;;;19.13;;
11471;SDS011;47430;50.808;4.388;2022-11-20T01:42:16;49.37;;;21.03;;
11471;SDS011;47430;50.808;4.388;2022-11-20T01:45:00;41.87;;;19.30;;
11471;SDS011;47430;50.808;4.388;2022-11-20T01:47:29;38.00;;;19.37;;
11471;SDS011;47430;50.808;4.388;2022-11-20T01:49:58;46.37;;;19.67;;
11471;SDS011;47430;50.808;4.388;2022-11-20T01:52:27;49.97;;;20.97;;
11471;SDS011;47430;50.808;4.388;2022-11-20T01:54:56;43.57;;;20.77;;
11471;SDS011;47430;50.808;4.388;2022-11-20T01:57:24;42.33;;;20.47;;
11471;SDS011;47430;50.808;4.388;2022-11-20T01:59:53;46.60;;;21.67;;
11471;SDS011;47430;50.808;4.388;2022-11-20T02:02:20;54.97;;;23.13;;
11471;SDS011;47430;50.808;4.388;2022-11-20T02:04:47;52.90;;;23.40;;
11471;SDS011;47430;50.808;4.388;2022-11-20T02:07:13;50.03;;;23.57;;
11471;SDS011;47430;50.808;4.388;2022-11-20T02:09:39;54.00;;;23.17;;
11471;SDS011;47430;50.808;4.388;2022-11-20T02:12:05;52.43;;;23.73;;
11471;SDS011;47430;50.808;4.388;2022-11-20T02:14:51;58.47;;;23.40;;
11471;SDS011;47430;50.808;4.388;2022-11-20T02:17:17;48.93;;;20.40;;
11471;SDS011;47430;50.808;4.388;2022-11-20T02:19:43;49.80;;;22.87;;
11471;SDS011;47430;50.808;4.388;2022-11-20T02:22:19;57.83;;;23.40;;
11471;SDS011;47430;50.808;4.388;2022-11-20T02:24:47;48.47;;;22.30;;
11471;SDS011;47430;50.808;4.388;2022-11-20T02:27:14;55.37;;;22.90;;
11471;SDS011;47430;50.808;4.388;2022-11-20T02:32:20;50.60;;;22.10;;
11471;SDS011;47430;50.808;4.388;2022-11-20T02:34:46;52.57;;;22.77;;
11471;SDS011;47430;50.808;4.388;2022-11-20T02:37:12;51.83;;;22.27;;
11471;SDS011;47430;50.808;4.388;2022-11-20T02:39:39;52.33;;;21.53;;
11471;SDS011;47430;50.808;4.388;2022-11-20T02:42:06;48.27;;;20.97;;
11471;SDS011;47430;50.808;4.388;2022-11-20T02:44:31;55.63;;;21.53;;
11471;SDS011;47430;50.808;4.388;2022-11-20T02:46:58;49.20;;;21.13;;
11471;SDS011;47430;50.808;4.388;2022-11-20T02:49:25;59.27;;;23.47;;
11471;SDS011;47430;50.808;4.388;2022-11-20T02:51:51;46.90;;;20.40;;
11471;SDS011;47430;50.808;4.388;2022-11-20T02:54:17;46.93;;;19.23;;
11471;SDS011;47430;50.808;4.388;2022-11-20T02:56:43;45.03;;;19.83;;
11471;SDS011;47430;50.808;4.388;2022-11-20T02:59:09;45.03;;;21.20;;
11471;SDS011;47430;50.808;4.388;2022-11-20T03:01:35;55.30;;;22.03;;
11471;SDS011;47430;50.808;4.388;2022-11-20T03:04:01;38.47;;;18.87;;
11471;SDS011;47430;50.808;4.388;2022-11-20T03:06:27;47.50;;;19.43;;
11471;SDS011;47430;50.808;4.388;2022-11-20T03:08:53;47.67;;;20.23;;
11471;SDS011;47430;50.808;4.388;2022-11-20T03:11:19;45.57;;;18.93;;
11471;SDS011;47430;50.808;4.388;2022-11-20T03:13:45;46.90;;;19.67;;
11471;SDS011;47430;50.808;4.388;2022-11-20T03:16:12;51.60;;;18.87;;
11471;SDS011;47430;50.808;4.388;2022-11-20T03:18:39;48.63;;;19.77;;
11471;SDS011;47430;50.808;4.388;2022-11-20T03:21:05;51.27;;;18.37;;
11471;SDS011;47430;50.808;4.388;2022-11-20T03:23:32;37.83;;;17.43;;
11471;SDS011;47430;50.808;4.388;2022-11-20T03:28:39;44.77;;;16.83;;
11471;SDS011;47430;50.808;4.388;2022-11-20T03:31:06;43.07;;;18.90;;
11471;SDS011;47430;50.808;4.388;2022-11-20T03:33:33;39.33;;;17.63;;
11471;SDS011;47430;50.808;4.388;2022-11-20T03:36:03;37.07;;;18.33;;
11471;SDS011;47430;50.808;4.388;2022-11-20T03:38:29;41.73;;;18.67;;
11471;SDS011;47430;50.808;4.388;2022-11-20T03:41:00;46.23;;;17.83;;
11471;SDS011;47430;50.808;4.388;2022-11-20T03:43:26;45.77;;;18.40;;
11471;SDS011;47430;50.808;4.388;2022-11-20T03:45:53;44.67;;;17.53;;
11471;SDS011;47430;50.808;4.388;2022-11-20T03:48:19;41.90;;;18.80;;
11471;SDS011;47430;50.808;4.388;2022-11-20T03:50:45;44.63;;;18.23;;
11471;SDS011;47430;50.808;4.388;2022-11-20T03:53:12;45.57;;;18.97;;
11471;SDS011;47430;50.808;4.388;2022-11-20T03:55:38;49.70;;;19.37;;
11471;SDS011;47430;50.808;4.388;2022-11-20T03:58:04;47.20;;;19.90;;
11471;SDS011;47430;50.808;4.388;2022-11-20T04:00:30;45.23;;;18.17;;
11471;SDS011;47430;50.808;4.388;2022-11-20T04:02:59;42.27;;;18.00;;
11471;SDS011;47430;50.808;4.388;2022-11-20T04:05:25;43.23;;;19.27;;
11471;SDS011;47430;50.808;4.388;2022-11-20T04:07:51;43.53;;;18.17;;
11471;SDS011;47430;50.808;4.388;2022-11-20T04:10:18;47.03;;;18.33;;
11471;SDS011;47430;50.808;4.388;2022-11-20T04:12:44;45.77;;;18.90;;
11471;SDS011;47430;50.808;4.388;2022-11-20T04:15:10;46.27;;;19.13;;
11471;SDS011;47430;50.808;4.388;2022-11-20T04:17:36;47.33;;;20.13;;
11471;SDS011;47430;50.808;4.388;2022-11-20T04:20:02;49.77;;;19.73;;
11471;SDS011;47430;50.808;4.388;2022-11-20T04:22:28;50.97;;;19.57;;
11471;SDS011;47430;50.808;4.388;2022-11-20T04:24:54;49.43;;;20.30;;
11471;SDS011;47430;50.808;4.388;2022-11-20T04:27:20;51.00;;;19.30;;
11471;SDS011;47430;50.808;4.388;2022-11-20T04:29:46;50.07;;;20.43;;
11471;SDS011;47430;50.808;4.388;2022-11-20T04:32:12;46.00;;;18.73;;
11471;SDS011;47430;50.808;4.388;2022-11-20T04:34:38;55.73;;;19.73;;
11471;SDS011;47430;50.808;4.388;2022-11-20T04:37:04;53.43;;;19.60;;
11471;SDS011;47430;50.808;4.388;2022-11-20T04:39:30;52.67;;;20.33;;
11471;SDS011;47430;50.808;4.388;2022-11-20T04:41:56;53.87;;;20.70;;
11471;SDS011;47430;50.808;4.388;2022-11-20T04:44:41;52.50;;;19.37;;
11471;SDS011;47430;50.808;4.388;2022-11-20T04:47:08;47.33;;;20.53;;
11471;SDS011;47430;50.808;4.388;2022-11-20T04:49:34;52.33;;;20.20;;
11471;SDS011;47430;50.808;4.388;2022-11-20T04:52:00;50.67;;;20.83;;
11471;SDS011;47430;50.808;4.388;2022-11-20T04:54:26;56.33;;;21.57;;
11471;SDS011;47430;50.808;4.388;2022-11-20T04:56:52;55.00;;;21.23;;
11471;SDS011;47430;50.808;4.388;2022-11-20T04:59:18;53.00;;;21.17;;
11471;SDS011;47430;50.808;4.388;2022-11-20T05:01:44;53.93;;;20.83;;
11471;SDS011;47430;50.808;4.388;2022-11-20T05:04:10;55.17;;;21.67;;
11471;SDS011;47430;50.808;4.388;2022-11-20T05:06:36;61.47;;;21.70;;
11471;SDS011;47430;50.808;4.388;2022-11-20T05:09:02;55.00;;;21.97;;
11471;SDS011;47430;50.808;4.388;2022-11-20T05:11:28;51.27;;;20.13;;
11471;SDS011;47430;50.808;4.388;2022-11-20T05:13:54;54.03;;;21.03;;
11471;SDS011;47430;50.808;4.388;2022-11-20T05:16:21;48.93;;;21.73;;
11471;SDS011;47430;50.808;4.388;2022-11-20T05:18:48;63.83;;;21.93;;
11471;SDS011;47430;50.808;4.388;2022-11-20T05:21:14;61.57;;;22.00;;
11471;SDS011;47430;50.808;4.388;2022-11-20T05:23:40;58.90;;;21.47;;
11471;SDS011;47430;50.808;4.388;2022-11-20T05:26:07;53.20;;;21.00;;
11471;SDS011;47430;50.808;4.388;2022-11-20T05:28:34;66.33;;;23.33;;
11471;SDS011;47430;50.808;4.388;2022-11-20T05:31:13;55.47;;;21.40;;
11471;SDS011;47430;50.808;4.388;2022-11-20T05:33:40;58.23;;;21.30;;
11471;SDS011;47430;50.808;4.388;2022-11-20T05:36:06;62.37;;;21.80;;
11471;SDS011;47430;50.808;4.388;2022-11-20T05:38:33;66.57;;;22.00;;
11471;SDS011;47430;50.808;4.388;2022-11-20T05:41:03;60.10;;;20.90;;
11471;SDS011;47430;50.808;4.388;2022-11-20T05:43:31;54.97;;;20.53;;
11471;SDS011;47430;50.808;4.388;2022-11-20T05:45:57;58.83;;;21.10;;
11471;SDS011;47430;50.808;4.388;2022-11-20T05:48:23;61.13;;;23.13;;
11471;SDS011;47430;50.808;4.388;2022-11-20T05:50:49;57.60;;;20.77;;
11471;SDS011;47430;50.808;4.388;2022-11-20T05:53:15;60.63;;;21.87;;
11471;SDS011;47430;50.808;4.388;2022-11-20T05:55:41;66.80;;;23.87;;
11471;SDS011;47430;50.808;4.388;2022-11-20T05:58:07;59.40;;;21.97;;
11471;SDS011;47430;50.808;4.388;2022-11-20T06:00:33;59.13;;;20.70;;
11471;SDS011;47430;50.808;4.388;2022-11-20T06:03:00;61.57;;;22.00;;
11471;SDS011;47430;50.808;4.388;2022-11-20T06:05:26;63.77;;;21.53;;
11471;SDS011;47430;50.808;4.388;2022-11-20T06:07:52;66.03;;;22.00;;
11471;SDS011;47430;50.808;4.388;2022-11-20T06:10:18;65.63;;;24.30;;
11471;SDS011;47430;50.808;4.388;2022-11-20T06:12:44;70.80;;;24.17;;
11471;SDS011;47430;50.808;4.388;2022-11-20T06:15:10;63.20;;;21.83;;
11471;SDS011;47430;50.808;4.388;2022-11-20T06:17:36;61.90;;;19.97;;
11471;SDS011;47430;50.808;4.388;2022-11-20T06:20:02;55.57;;;21.73;;
11471;SDS011;47430;50.808;4.388;2022-11-20T06:22:28;59.87;;;21.90;;
11471;SDS011;47430;50.808;4.388;2022-11-20T06:24:54;53.60;;;20.70;;
11471;SDS011;47430;50.808;4.388;2022-11-20T06:27:20;55.50;;;20.47;;
11471;SDS011;47430;50.808;4.388;2022-11-20T06:29:46;56.20;;;21.83;;
11471;SDS011;47430;50.808;4.388;2022-11-20T06:32:12;61.13;;;21.23;;
11471;SDS011;47430;50.808;4.388;2022-11-20T06:34:38;55.90;;;22.20;;
11471;SDS011;47430;50.808;4.388;2022-11-20T06:37:04;60.97;;;23.47;;
11471;SDS011;47430;50.808;4.388;2022-11-20T06:39:30;64.90;;;22.87;;
11471;SDS011;47430;50.808;4.388;2022-11-20T06:41:56;64.93;;;21.17;;
11471;SDS011;47430;50.808;4.388;2022-11-20T06:44:22;56.17;;;21.77;;
11471;SDS011;47430;50.808;4.388;2022-11-20T06:46:48;60.90;;;22.17;;
11471;SDS011;47430;50.808;4.388;2022-11-20T06:49:14;55.50;;;22.40;;
11471;SDS011;47430;50.808;4.388;2022-11-20T06:51:40;53.03;;;20.90;;
11471;SDS011;47430;50.808;4.388;2022-11-20T06:54:07;54.97;;;20.87;;
11471;SDS011;47430;50.808;4.388;2022-11-20T06:56:33;54.00;;;20.97;;
11471;SDS011;47430;50.808;4.388;2022-11-20T06:59:03;52.73;;;19.97;;
11471;SDS011;47430;50.808;4.388;2022-11-20T07:01:29;55.90;;;20.57;;
11471;SDS011;47430;50.808;4.388;2022-11-20T07:03:55;53.63;;;21.93;;
11471;SDS011;47430;50.808;4.388;2022-11-20T07:06:21;62.43;;;21.97;;
11471;SDS011;47430;50.808;4.388;2022-11-20T07:08:47;61.93;;;21.60;;
11471;SDS011;47430;50.808;4.388;2022-11-20T07:11:13;50.43;;;19.77;;
11471;SDS011;47430;50.808;4.388;2022-11-20T07:13:39;52.73;;;20.10;;
11471;SDS011;47430;50.808;4.388;2022-11-20T07:16:06;52.53;;;21.27;;
11471;SDS011;47430;50.808;4.388;2022-11-20T07:18:32;47.73;;;17.43;;
11471;SDS011;47430;50.808;4.388;2022-11-20T07:21:05;49.60;;;20.47;;
11471;SDS011;47430;50.808;4.388;2022-11-20T07:23:31;49.67;;;18.27;;
11471;SDS011;47430;50.808;4.388;2022-11-20T07:25:57;48.67;;;19.77;;
11471;SDS011;47430;50.808;4.388;2022-11-20T07:28:24;46.07;;;18.70;;
11471;SDS011;47430;50.808;4.388;2022-11-20T07:30:50;48.47;;;19.13;;
11471;SDS011;47430;50.808;4.388;2022-11-20T07:33:17;48.47;;;18.87;;
11471;SDS011;47430;50.808;4.388;2022-11-20T07:35:43;53.70;;;19.67;;
11471;SDS011;47430;50.808;4.388;2022-11-20T07:38:09;53.50;;;18.73;;
11471;SDS011;47430;50.808;4.388;2022-11-20T07:40:36;59.93;;;20.50;;
11471;SDS011;47430;50.808;4.388;2022-11-20T07:43:02;55.53;;;20.97;;
11471;SDS011;47430;50.808;4.388;2022-11-20T07:45:28;55.13;;;20.00;;
11471;SDS011;47430;50.808;4.388;2022-11-20T07:47:54;63.20;;;20.43;;
11471;SDS011;47430;50.808;4.388;2022-11-20T07:50:20;52.77;;;19.87;;
11471;SDS011;47430;50.808;4.388;2022-11-20T07:52:46;47.57;;;19.37;;
11471;SDS011;47430;50.808;4.388;2022-11-20T07:55:12;48.63;;;19.07;;
11471;SDS011;47430;50.808;4.388;2022-11-20T07:57:38;43.23;;;19.03;;
11471;SDS011;47430;50.808;4.388;2022-11-20T08:00:05;48.17;;;18.40;;
11471;SDS011;47430;50.808;4.388;2022-11-20T08:02:33;42.23;;;17.73;;
11471;SDS011;47430;50.808;4.388;2022-11-20T08:04:59;50.90;;;18.80;;
11471;SDS011;47430;50.808;4.388;2022-11-20T08:07:25;51.77;;;19.23;;
11471;SDS011;47430;50.808;4.388;2022-11-20T08:09:51;56.27;;;19.83;;
11471;SDS011;47430;50.808;4.388;2022-11-20T08:12:18;44.40;;;18.27;;
11471;SDS011;47430;50.808;4.388;2022-11-20T08:15:04;41.67;;;18.63;;
11471;SDS011;47430;50.808;4.388;2022-11-20T08:17:30;51.13;;;19.60;;
11471;SDS011;47430;50.808;4.388;2022-11-20T08:19:56;47.57;;;19.17;;
11471;SDS011;47430;50.808;4.388;2022-11-20T08:22:22;55.70;;;19.67;;
11471;SDS011;47430;50.808;4.388;2022-11-20T08:24:49;53.93;;;19.60;;
11471;SDS011;47430;50.808;4.388;2022-11-20T08:27:15;41.77;;;17.27;;
11471;SDS011;47430;50.808;4.388;2022-11-20T08:29:42;49.33;;;19.37;;
11471;SDS011;47430;50.808;4.388;2022-11-20T08:32:08;53.57;;;17.93;;
11471;SDS011;47430;50.808;4.388;2022-11-20T08:34:34;52.50;;;20.00;;
11471;SDS011;47430;50.808;4.388;2022-11-20T08:37:01;57.87;;;18.90;;
11471;SDS011;47430;50.808;4.388;2022-11-20T08:39:27;44.73;;;17.43;;
11471;SDS011;47430;50.808;4.388;2022-11-20T08:41:53;52.90;;;19.37;;
11471;SDS011;47430;50.808;4.388;2022-11-20T08:44:20;47.33;;;18.57;;
11471;SDS011;47430;50.808;4.388;2022-11-20T08:46:46;40.23;;;15.80;;
11471;SDS011;47430;50.808;4.388;2022-11-20T08:49:12;44.93;;;17.00;;
11471;SDS011;47430;50.808;4.388;2022-11-20T08:51:39;53.40;;;19.37;;
11471;SDS011;47430;50.808;4.388;2022-11-20T08:54:05;49.03;;;18.50;;
11471;SDS011;47430;50.808;4.388;2022-11-20T08:56:31;52.90;;;19.03;;
11471;SDS011;47430;50.808;4.388;2022-11-20T08:58:58;51.83;;;19.30;;
11471;SDS011;47430;50.808;4.388;2022-11-20T09:01:27;55.00;;;18.20;;
11471;SDS011;47430;50.808;4.388;2022-11-20T09:03:57;48.90;;;17.97;;
11471;SDS011;47430;50.808;4.388;2022-11-20T09:06:24;46.37;;;18.13;;
11471;SDS011;47430;50.808;4.388;2022-11-20T09:08:53;43.20;;;17.03;;
11471;SDS011;47430;50.808;4.388;2022-11-20T09:11:20;40.33;;;16.97;;
11471;SDS011;47430;50.808;4.388;2022-11-20T09:13:46;39.50;;;16.67;;
11471;SDS011;47430;50.808;4.388;2022-11-20T09:16:12;44.87;;;18.70;;
11471;SDS011;47430;50.808;4.388;2022-11-20T09:18:38;39.60;;;17.03;;
11471;SDS011;47430;50.808;4.388;2022-11-20T09:21:06;37.47;;;15.90;;
11471;SDS011;47430;50.808;4.388;2022-11-20T09:23:33;39.30;;;16.60;;
11471;SDS011;47430;50.808;4.388;2022-11-20T09:26:08;36.67;;;16.83;;
11471;SDS011;47430;50.808;4.388;2022-11-20T09:28:34;36.10;;;15.63;;
11471;SDS011;47430;50.808;4.388;2022-11-20T09:31:00;42.23;;;16.13;;
11471;SDS011;47430;50.808;4.388;2022-11-20T09:33:26;35.60;;;15.77;;
11471;SDS011;47430;50.808;4.388;2022-11-20T09:35:53;41.13;;;15.00;;
11471;SDS011;47430;50.808;4.388;2022-11-20T09:38:19;29.10;;;14.23;;
11471;SDS011;47430;50.808;4.388;2022-11-20T09:40:58;31.73;;;15.33;;
11471;SDS011;47430;50.808;4.388;2022-11-20T09:46:00;29.87;;;12.60;;
11471;SDS011;47430;50.808;4.388;2022-11-20T09:53:45;26.27;;;10.93;;
11471;SDS011;47430;50.808;4.388;2022-11-20T09:56:12;29.77;;;13.67;;
11471;SDS011;47430;50.808;4.388;2022-11-20T10:01:15;25.97;;;10.63;;
11471;SDS011;47430;50.808;4.388;2022-11-20T10:06:12;19.90;;;9.70;;
11471;SDS011;47430;50.808;4.388;2022-11-20T10:08:43;22.70;;;9.70;;
11471;SDS011;47430;50.808;4.388;2022-11-20T10:11:23;22.03;;;9.30;;
11471;SDS011;47430;50.808;4.388;2022-11-20T10:16:26;20.00;;;8.67;;
11471;SDS011;47430;50.808;4.388;2022-11-20T10:21:38;14.03;;;7.93;;
11471;SDS011;47430;50.808;4.388;2022-11-20T10:31:35;13.57;;;6.17;;
11471;SDS011;47430;50.808;4.388;2022-11-20T10:34:06;14.43;;;5.73;;
11471;SDS011;47430;50.808;4.388;2022-11-20T10:36:34;15.40;;;5.70;;
11471;SDS011;47430;50.808;4.388;2022-11-20T10:39:14;9.63;;;5.17;;
11471;SDS011;47430;50.808;4.388;2022-11-20T10:41:41;13.13;;;5.30;;
11471;SDS011;47430;50.808;4.388;2022-11-20T10:44:14;12.47;;;5.00;;
11471;SDS011;47430;50.808;4.388;2022-11-20T10:47:01;14.20;;;4.73;;
11471;SDS011;47430;50.808;4.388;2022-11-20T10:49:29;8.43;;;4.43;;
11471;SDS011;47430;50.808;4.388;2022-11-20T10:52:09;7.33;;;3.80;;
11471;SDS011;47430;50.808;4.388;2022-11-20T10:57:17;11.60;;;3.87;;
11471;SDS011;47430;50.808;4.388;2022-11-20T11:02:23;4.70;;;3.33;;
11471;SDS011;47430;50.808;4.388;2022-11-20T11:04:50;5.47;;;3.00;;
11471;SDS011;47430;50.808;4.388;2022-11-20T11:07:35;13.10;;;3.83;;
11471;SDS011;47430;50.808;4.388;2022-11-20T11:10:05;6.33;;;3.57;;
11471;SDS011;47430;50.808;4.388;2022-11-20T11:12:38;5.73;;;3.37;;
11471;SDS011;47430;50.808;4.388;2022-11-20T11:15:13;7.60;;;3.67;;
11471;SDS011;47430;50.808;4.388;2022-11-20T11:17:46;10.53;;;3.57;;
11471;SDS011;47430;50.808;4.388;2022-11-20T11:22:46;4.87;;;2.90;;
11471;SDS011;47430;50.808;4.388;2022-11-20T11:25:19;4.70;;;3.20;;
11471;SDS011;47430;50.808;4.388;2022-11-20T11:27:49;7.73;;;3.43;;
11471;SDS011;47430;50.808;4.388;2022-11-20T11:30:17;6.03;;;3.20;;
11471;SDS011;47430;50.808;4.388;2022-11-20T11:32:43;13.57;;;3.33;;
11471;SDS011;47430;50.808;4.388;2022-11-20T11:35:26;10.50;;;2.87;;
11471;SDS011;47430;50.808;4.388;2022-11-20T11:37:53;6.17;;;3.50;;
11471;SDS011;47430;50.808;4.388;2022-11-20T11:40:21;10.07;;;4.40;;
11471;SDS011;47430;50.808;4.388;2022-11-20T11:42:56;4.70;;;2.80;;
11471;SDS011;47430;50.808;4.388;2022-11-20T11:45:23;4.73;;;2.80;;
11471;SDS011;47430;50.808;4.388;2022-11-20T11:47:49;8.50;;;3.87;;
11471;SDS011;47430;50.808;4.388;2022-11-20T11:50:27;11.50;;;3.73;;
11471;SDS011;47430;50.808;4.388;2022-11-20T12:00:30;5.80;;;2.77;;
11471;SDS011;47430;50.808;4.388;2022-11-20T12:03:06;6.27;;;2.70;;
11471;SDS011;47430;50.808;4.388;2022-11-20T12:05:45;4.23;;;3.03;;
11471;SDS011;47430;50.808;4.388;2022-11-20T12:08:17;4.93;;;2.87;;
11471;SDS011;47430;50.808;4.388;2022-11-20T12:15:47;7.83;;;3.80;;
11471;SDS011;47430;50.808;4.388;2022-11-20T12:18:17;7.03;;;3.13;;
11471;SDS011;47430;50.808;4.388;2022-11-20T12:25:58;9.50;;;3.17;;
11471;SDS011;47430;50.808;4.388;2022-11-20T12:31:32;11.00;;;4.13;;
11471;SDS011;47430;50.808;4.388;2022-11-20T12:34:17;10.37;;;3.57;;
11471;SDS011;47430;50.808;4.388;2022-11-20T12:37:22;7.27;;;3.17;;
11471;SDS011;47430;50.808;4.388;2022-11-20T12:39:41;4.30;;;3.23;;
11471;SDS011;47430;50.808;4.388;2022-11-20T12:42:29;4.13;;;3.13;;
11471;SDS011;47430;50.808;4.388;2022-11-20T12:53:08;7.03;;;3.57;;
11471;SDS011;47430;50.808;4.388;2022-11-20T12:58:49;7.50;;;3.27;;
11471;SDS011;47430;50.808;4.388;2022-11-20T13:06:48;7.70;;;4.00;;
11471;SDS011;47430;50.808;4.388;2022-11-20T13:09:16;12.97;;;3.80;;
11471;SDS011;47430;50.808;4.388;2022-11-20T13:12:04;5.83;;;3.40;;
11471;SDS011;47430;50.808;4.388;2022-11-20T13:17:11;6.07;;;3.60;;
11471;SDS011;47430;50.808;4.388;2022-11-20T13:19:39;14.07;;;5.30;;
11471;SDS011;47430;50.808;4.388;2022-11-20T13:22:07;4.23;;;3.33;;
11471;SDS011;47430;50.808;4.388;2022-11-20T13:24:34;7.23;;;3.17;;
11471;SDS011;47430;50.808;4.388;2022-11-20T13:29:46;5.03;;;3.47;;
11471;SDS011;47430;50.808;4.388;2022-11-20T13:34:39;6.67;;;3.23;;
11471;SDS011;47430;50.808;4.388;2022-11-20T13:37:05;7.03;;;3.70;;
11471;SDS011;47430;50.808;4.388;2022-11-20T13:39:35;7.07;;;3.37;;
11471;SDS011;47430;50.808;4.388;2022-11-20T13:42:02;6.93;;;3.40;;
11471;SDS011;47430;50.808;4.388;2022-11-20T13:47:02;5.43;;;2.73;;
11471;SDS011;47430;50.808;4.388;2022-11-20T13:49:39;5.67;;;3.40;;
11471;SDS011;47430;50.808;4.388;2022-11-20T14:00:05;3.03;;;2.30;;
11471;SDS011;47430;50.808;4.388;2022-11-20T14:02:35;6.57;;;3.20;;
11471;SDS011;47430;50.808;4.388;2022-11-20T14:05:01;3.13;;;2.20;;
11471;SDS011;47430;50.808;4.388;2022-11-20T14:07:34;3.33;;;2.97;;
11471;SDS011;47430;50.808;4.388;2022-11-20T14:10:01;4.70;;;2.77;;
11471;SDS011;47430;50.808;4.388;2022-11-20T14:12:29;3.00;;;2.30;;
11471;SDS011;47430;50.808;4.388;2022-11-20T14:14:55;5.30;;;2.20;;
11471;SDS011;47430;50.808;4.388;2022-11-20T14:17:23;3.40;;;2.80;;
11471;SDS011;47430;50.808;4.388;2022-11-20T14:19:51;2.70;;;2.03;;
11471;SDS011;47430;50.808;4.388;2022-11-20T14:22:19;3.17;;;2.70;;
11471;SDS011;47430;50.808;4.388;2022-11-20T14:24:46;3.17;;;2.50;;
11471;SDS011;47430;50.808;4.388;2022-11-20T14:27:22;2.93;;;2.40;;
11471;SDS011;47430;50.808;4.388;2022-11-20T14:29:48;4.43;;;2.70;;
11471;SDS011;47430;50.808;4.388;2022-11-20T14:32:18;4.23;;;2.83;;
11471;SDS011;47430;50.808;4.388;2022-11-20T14:34:46;4.23;;;2.77;;
11471;SDS011;47430;50.808;4.388;2022-11-20T14:37:17;3.77;;;2.97;;
11471;SDS011;47430;50.808;4.388;2022-11-20T14:42:36;5.33;;;3.10;;
11471;SDS011;47430;50.808;4.388;2022-11-20T14:45:02;8.30;;;3.37;;
11471;SDS011;47430;50.808;4.388;2022-11-20T14:47:29;6.37;;;3.03;;
11471;SDS011;47430;50.808;4.388;2022-11-20T14:49:56;4.40;;;3.37;;
11471;SDS011;47430;50.808;4.388;2022-11-20T14:52:24;4.57;;;3.30;;
11471;SDS011;47430;50.808;4.388;2022-11-20T14:54:51;5.07;;;3.20;;
11471;SDS011;47430;50.808;4.388;2022-11-20T14:57:22;3.73;;;3.10;;
11471;SDS011;47430;50.808;4.388;2022-11-20T14:59:49;3.50;;;3.03;;
11471;SDS011;47430;50.808;4.388;2022-11-20T15:02:15;4.57;;;3.17;;
11471;SDS011;47430;50.808;4.388;2022-11-20T15:04:48;4.07;;;3.13;;
11471;SDS011;47430;50.808;4.388;2022-11-20T15:07:27;5.27;;;3.53;;
11471;SDS011;47430;50.808;4.388;2022-11-20T15:10:27;7.37;;;4.03;;
11471;SDS011;47430;50.808;4.388;2022-11-20T15:12:55;6.03;;;3.40;;
11471;SDS011;47430;50.808;4.388;2022-11-20T15:15:25;5.93;;;3.03;;
11471;SDS011;47430;50.808;4.388;2022-11-20T15:17:54;8.87;;;4.10;;
11471;SDS011;47430;50.808;4.388;2022-11-20T15:20:21;5.70;;;3.50;;
11471;SDS011;47430;50.808;4.388;2022-11-20T15:22:49;4.00;;;3.37;;
11471;SDS011;47430;50.808;4.388;2022-11-20T15:25:16;5.03;;;3.47;;
11471;SDS011;47430;50.808;4.388;2022-11-20T15:27:45;10.07;;;4.30;;
11471;SDS011;47430;50.808;4.388;2022-11-20T15:30:16;4.83;;;3.73;;
11471;SDS011;47430;50.808;4.388;2022-11-20T15:32:42;7.10;;;3.50;;
11471;SDS011;47430;50.808;4.388;2022-11-20T15:35:09;9.87;;;4.43;;
11471;SDS011;47430;50.808;4.388;2022-11-20T15:37:36;7.53;;;4.63;;
11471;SDS011;47430;50.808;4.388;2022-11-20T15:40:02;6.40;;;3.87;;
11471;SDS011;47430;50.808;4.388;2022-11-20T15:42:29;11.50;;;4.93;;
11471;SDS011;47430;50.808;4.388;2022-11-20T15:44:55;9.83;;;4.13;;
11471;SDS011;47430;50.808;4.388;2022-11-20T15:47:22;14.23;;;5.23;;
11471;SDS011;47430;50.808;4.388;2022-11-20T15:49:51;8.13;;;4.37;;
11471;SDS011;47430;50.808;4.388;2022-11-20T15:52:17;7.47;;;4.00;;
11471;SDS011;47430;50.808;4.388;2022-11-20T15:54:43;6.13;;;3.70;;
11471;SDS011;47430;50.808;4.388;2022-11-20T15:57:09;11.60;;;4.63;;
11471;SDS011;47430;50.808;4.388;2022-11-20T15:59:35;9.87;;;4.70;;
11471;SDS011;47430;50.808;4.388;2022-11-20T16:02:14;9.13;;;4.40;;
11471;SDS011;47430;50.808;4.388;2022-11-20T16:04:40;11.17;;;4.60;;
11471;SDS011;47430;50.808;4.388;2022-11-20T16:07:07;10.53;;;4.03;;
11471;SDS011;47430;50.808;4.388;2022-11-20T16:09:33;14.83;;;4.27;;
11471;SDS011;47430;50.808;4.388;2022-11-20T16:11:59;7.73;;;3.57;;